createdAt,value
2022-12-19T00:00:00.140Z,9.60
2022-12-19T00:04:08.028Z,8.40
2022-12-19T00:08:17.085Z,7.90
2022-12-19T00:12:19.836Z,10.20
2022-12-19T00:16:25.289Z,9.20
2022-12-19T00:20:27.418Z,9.70
2022-12-19T00:24:29.327Z,8.90
2022-12-19T00:28:31.296Z,8.80
2022-12-19T00:32:33.177Z,10.30
2022-12-19T00:36:35.292Z,11.60
2022-12-19T00:40:37.242Z,12.40
2022-12-19T00:44:42.405Z,10.00
2022-12-19T00:48:44.297Z,11.60
2022-12-19T00:52:46.198Z,10.80
2022-12-19T00:56:48.143Z,9.20
2022-12-19T01:00:50.201Z,10.80
2022-12-19T01:04:52.162Z,11.30
2022-12-19T01:08:54.610Z,14.20
2022-12-19T01:12:56.885Z,13.30
2022-12-19T01:16:58.796Z,14.20
2022-12-19T01:21:02.846Z,14.00
2022-12-19T01:25:06.012Z,10.30
2022-12-19T01:29:07.930Z,10.90
2022-12-19T01:33:14.598Z,11.80
2022-12-19T01:37:17.082Z,11.40
2022-12-19T01:41:19.101Z,13.60
2022-12-19T01:45:34.838Z,9.90
2022-12-19T01:49:37.890Z,11.00
2022-12-19T01:53:57.267Z,14.30
2022-12-19T01:58:00.992Z,11.80
2022-12-19T02:02:27.340Z,12.20
2022-12-19T02:06:30.959Z,13.90
2022-12-19T02:10:33.858Z,12.50
2022-12-19T02:14:35.979Z,11.70
2022-12-19T02:18:51.496Z,11.20
2022-12-19T02:23:09.508Z,13.40
2022-12-19T02:27:47.707Z,14.30
2022-12-19T02:32:00.112Z,11.90
2022-12-19T02:36:07.014Z,13.10
2022-12-19T02:40:17.705Z,14.60
2022-12-19T02:44:47.712Z,14.00
2022-12-19T02:48:52.305Z,14.90
2022-12-19T02:52:54.895Z,14.90
2022-12-19T02:57:19.376Z,15.70
2022-12-19T03:01:44.951Z,12.90
2022-12-19T03:06:16.384Z,20.50
2022-12-19T03:10:38.366Z,13.10
2022-12-19T03:14:42.021Z,13.50
2022-12-19T03:18:45.071Z,12.80
2022-12-19T03:22:47.107Z,14.10
2022-12-19T03:27:14.247Z,15.20
2022-12-19T03:31:19.006Z,12.90
2022-12-19T03:35:25.090Z,14.10
2022-12-19T03:39:30.198Z,14.20
2022-12-19T03:43:34.412Z,13.70
2022-12-19T03:47:41.602Z,15.00
2022-12-19T03:51:59.216Z,12.90
2022-12-19T03:56:42.785Z,12.40
2022-12-19T04:00:49.722Z,14.40
2022-12-19T04:04:55.580Z,15.10
2022-12-19T04:08:59.567Z,15.00
2022-12-19T04:13:11.546Z,16.10
2022-12-19T04:17:29.397Z,14.80
2022-12-19T04:21:46.771Z,11.80
2022-12-19T04:25:54.208Z,12.50
2022-12-19T04:29:58.798Z,15.30
2022-12-19T04:34:00.718Z,14.30
2022-12-19T04:38:02.870Z,15.90
2022-12-19T04:42:04.899Z,13.40
2022-12-19T04:46:06.848Z,15.20
2022-12-19T04:50:09.631Z,14.50
2022-12-19T04:54:11.564Z,15.00
2022-12-19T04:58:17.605Z,12.80
2022-12-19T05:02:21.413Z,16.60
2022-12-19T05:06:23.883Z,15.20
2022-12-19T05:10:25.851Z,14.70
2022-12-19T05:14:27.759Z,16.90
2022-12-19T05:18:30.214Z,12.80
2022-12-19T05:22:32.357Z,16.70
2022-12-19T05:26:34.293Z,16.10
2022-12-19T05:30:36.230Z,16.20
2022-12-19T05:34:38.428Z,17.00
2022-12-19T05:38:40.577Z,17.10
2022-12-19T05:42:42.480Z,18.20
2022-12-19T05:46:44.622Z,16.40
2022-12-19T05:50:48.908Z,14.50
2022-12-19T05:54:50.851Z,18.00
2022-12-19T05:58:54.051Z,14.60
2022-12-19T06:02:56.115Z,14.40
2022-12-19T06:06:58.665Z,16.80
2022-12-19T06:11:02.196Z,18.40
2022-12-19T06:15:04.472Z,16.00
2022-12-19T06:19:06.588Z,17.00
2022-12-19T06:23:08.487Z,16.90
2022-12-19T06:27:10.975Z,15.90
2022-12-19T06:31:13.719Z,18.40
2022-12-19T06:35:16.176Z,16.10
2022-12-19T06:39:18.329Z,17.80
2022-12-19T06:43:20.291Z,16.90
2022-12-19T06:47:23.836Z,18.70
2022-12-19T06:51:26.095Z,15.10
2022-12-19T06:55:28.119Z,19.90
2022-12-19T06:59:30.283Z,17.40
2022-12-19T07:03:38.830Z,16.00
2022-12-19T07:07:40.979Z,15.90
2022-12-19T07:11:42.877Z,17.00
2022-12-19T07:15:44.878Z,17.40
2022-12-19T07:19:47.276Z,15.60
2022-12-19T07:23:49.256Z,17.80
2022-12-19T07:27:52.021Z,17.00
2022-12-19T07:31:54.265Z,16.40
2022-12-19T07:35:56.313Z,17.90
2022-12-19T07:39:58.291Z,16.50
2022-12-19T07:44:00.178Z,18.50
2022-12-19T07:48:03.479Z,17.80
2022-12-19T07:52:05.370Z,18.10
2022-12-19T07:56:07.750Z,15.90
2022-12-19T08:00:10.397Z,16.20
2022-12-19T08:04:15.252Z,17.00
2022-12-19T08:08:17.340Z,16.20
2022-12-19T08:12:21.616Z,16.80
2022-12-19T08:16:26.493Z,16.30
2022-12-19T08:20:28.666Z,13.90
2022-12-19T08:24:30.591Z,17.20
2022-12-19T08:28:34.337Z,18.10
2022-12-19T08:32:36.330Z,17.60
2022-12-19T08:36:39.200Z,17.90
2022-12-19T08:40:47.110Z,16.70
2022-12-19T08:44:49.402Z,17.20
2022-12-19T08:48:51.336Z,13.10
2022-12-19T08:52:53.457Z,15.00
2022-12-19T08:56:55.356Z,17.50
2022-12-19T09:01:05.812Z,14.90
2022-12-19T09:05:59.780Z,15.50
2022-12-19T09:09:30.258Z,15.90
2022-12-19T09:13:32.682Z,14.60
2022-12-19T09:17:34.665Z,14.90
2022-12-19T09:21:36.574Z,14.90
2022-12-19T09:25:38.485Z,17.40
2022-12-19T09:29:40.507Z,16.80
2022-12-19T09:33:43.845Z,14.80
2022-12-19T09:37:46.127Z,15.50
2022-12-19T09:42:11.932Z,13.60
2022-12-19T09:46:28.964Z,15.40
2022-12-19T09:50:51.329Z,17.10
2022-12-19T09:55:01.815Z,16.40
2022-12-19T09:59:15.809Z,17.60
2022-12-19T10:03:28.129Z,15.90
2022-12-19T10:07:54.695Z,15.30
2022-12-19T10:12:43.496Z,14.80
2022-12-19T10:17:22.684Z,14.00
2022-12-19T10:22:17.547Z,14.40
2022-12-19T10:26:23.378Z,14.50
2022-12-19T10:30:38.990Z,13.40
2022-12-19T10:39:33.089Z,13.30
2022-12-19T10:44:05.329Z,14.50
2022-12-19T10:48:15.143Z,16.80
2022-12-19T10:52:48.118Z,14.60
2022-12-19T10:56:50.243Z,16.00
2022-12-19T11:01:11.577Z,16.40
2022-12-19T11:05:24.965Z,16.40
2022-12-19T11:09:30.119Z,15.10
2022-12-19T11:19:32.561Z,14.40
2022-12-19T11:27:16.182Z,14.60
2022-12-19T11:29:38.446Z,16.70
2022-12-19T11:30:36.285Z,15.50
2022-12-19T11:35:49.737Z,16.30
2022-12-19T11:39:58.884Z,15.70
2022-12-19T11:44:19.607Z,14.40
2022-12-19T11:48:47.677Z,15.40
2022-12-19T11:53:04.505Z,16.50
2022-12-19T12:01:23.227Z,16.30
2022-12-19T12:05:51.252Z,16.10
2022-12-19T12:18:03.656Z,14.90
2022-12-19T12:31:04.353Z,15.20
2022-12-19T12:31:41.052Z,12.60
2022-12-19T12:31:47.165Z,14.90
2022-12-19T12:35:35.106Z,15.20
2022-12-19T12:43:01.870Z,12.60
2022-12-19T12:47:21.768Z,12.40
2022-12-19T12:51:25.306Z,10.90
2022-12-19T12:55:30.037Z,15.80
2022-12-19T12:59:32.311Z,13.90
2022-12-19T13:03:34.865Z,12.40
2022-12-19T13:07:51.140Z,13.30
2022-12-19T13:12:22.940Z,12.80
2022-12-19T13:16:43.325Z,11.70
2022-12-19T13:20:47.441Z,12.60
2022-12-19T13:24:57.012Z,14.50
2022-12-19T13:29:29.949Z,13.20
2022-12-19T13:34:10.749Z,13.00
2022-12-19T13:39:54.912Z,13.00
2022-12-19T13:43:17.865Z,13.40
2022-12-19T13:47:23.759Z,11.00
2022-12-19T13:51:26.152Z,13.90
2022-12-19T13:55:29.349Z,14.30
2022-12-19T13:59:38.295Z,13.20
2022-12-19T14:03:43.282Z,13.10
2022-12-19T14:07:46.490Z,14.40
2022-12-19T14:13:42.950Z,13.70
2022-12-19T14:16:16.777Z,14.20
2022-12-19T14:21:39.652Z,13.30
2022-12-19T14:25:33.239Z,12.30
2022-12-19T14:29:45.428Z,13.60
2022-12-19T14:39:24.040Z,12.90
2022-12-19T14:43:59.131Z,14.30
2022-12-19T14:54:11.823Z,12.00
2022-12-19T14:54:28.277Z,12.70
2022-12-19T14:56:47.188Z,14.40
2022-12-19T15:01:09.339Z,13.40
2022-12-19T15:05:16.441Z,14.40
2022-12-19T15:10:59.007Z,12.80
2022-12-19T15:14:53.232Z,14.20
2022-12-19T15:18:24.255Z,13.70
2022-12-19T15:22:26.214Z,13.00
2022-12-19T15:26:32.038Z,13.80
2022-12-19T15:30:37.799Z,17.20
2022-12-19T15:34:50.485Z,15.30
2022-12-19T15:38:53.527Z,12.80
2022-12-19T15:42:57.932Z,14.70
2022-12-19T15:47:01.325Z,14.30
2022-12-19T15:51:03.406Z,14.40
2022-12-19T15:55:06.167Z,14.50
2022-12-19T15:59:37.723Z,13.80
2022-12-19T16:03:40.641Z,12.80
2022-12-19T16:07:43.721Z,15.70
2022-12-19T16:11:45.940Z,14.70
2022-12-19T16:15:49.048Z,14.00
2022-12-19T16:19:51.269Z,14.20
2022-12-19T16:23:54.061Z,13.70
2022-12-19T16:27:58.439Z,13.30
2022-12-19T16:32:01.336Z,12.40
2022-12-19T16:36:05.172Z,13.00
2022-12-19T16:40:14.362Z,17.10
2022-12-19T16:44:22.220Z,15.00
2022-12-19T16:48:26.543Z,15.10
2022-12-19T16:52:28.522Z,15.40
2022-12-19T16:56:40.076Z,15.90
2022-12-19T17:00:42.142Z,15.50
2022-12-19T17:04:47.596Z,15.80
2022-12-19T17:08:54.161Z,16.90
2022-12-19T17:12:57.886Z,15.20
2022-12-19T17:17:00.092Z,15.90
2022-12-19T17:21:02.573Z,13.90
2022-12-19T17:25:22.679Z,14.90
2022-12-19T17:29:24.694Z,15.10
2022-12-19T17:33:39.299Z,12.40
2022-12-19T17:37:42.929Z,15.40
2022-12-19T17:41:44.843Z,15.50
2022-12-19T17:45:49.037Z,16.50
2022-12-19T17:49:51.357Z,15.30
2022-12-19T17:53:53.323Z,15.40
2022-12-19T17:57:56.208Z,15.50
2022-12-19T18:01:58.364Z,15.00
2022-12-19T18:06:00.752Z,15.40
2022-12-19T18:10:06.532Z,13.70
2022-12-19T18:14:08.823Z,14.50
2022-12-19T18:18:16.462Z,15.70
2022-12-19T18:22:18.412Z,15.20
2022-12-19T18:26:20.458Z,14.70
2022-12-19T18:30:24.055Z,15.80
2022-12-19T18:34:28.518Z,15.30
2022-12-19T18:38:30.573Z,16.00
2022-12-19T18:42:32.689Z,16.00
2022-12-19T18:46:35.299Z,14.60
2022-12-19T18:50:37.392Z,14.90
2022-12-19T18:54:39.623Z,17.00
2022-12-19T18:58:41.881Z,18.20
2022-12-19T19:02:49.012Z,16.90
2022-12-19T19:06:54.773Z,16.30
2022-12-19T19:10:59.469Z,16.00
2022-12-19T19:15:01.938Z,17.60
2022-12-19T19:19:06.421Z,17.10
2022-12-19T19:23:10.944Z,16.40
2022-12-19T19:27:13.023Z,15.50
2022-12-19T19:31:17.268Z,16.20
2022-12-19T19:35:21.444Z,16.50
2022-12-19T19:39:23.586Z,17.90
2022-12-19T19:43:26.564Z,15.70
2022-12-19T19:47:28.684Z,15.50
2022-12-19T19:51:30.623Z,18.90
2022-12-19T19:55:32.514Z,16.90
2022-12-19T19:59:34.435Z,17.40
2022-12-19T20:03:37.636Z,18.00
2022-12-19T20:07:39.686Z,14.00
2022-12-19T20:11:41.675Z,16.00
2022-12-19T20:15:49.487Z,16.70
2022-12-19T20:19:51.944Z,16.60
2022-12-19T20:23:53.995Z,17.90
2022-12-19T20:27:55.997Z,19.00
2022-12-19T20:31:57.954Z,18.00
2022-12-19T20:36:08.949Z,17.40
2022-12-19T20:40:11.494Z,18.10
2022-12-19T20:44:16.432Z,18.90
2022-12-19T20:52:24.143Z,17.00
2022-12-19T20:56:26.208Z,19.70
2022-12-19T21:00:28.265Z,17.00
2022-12-19T21:04:30.865Z,19.60
2022-12-19T21:08:33.665Z,18.50
2022-12-19T21:12:35.641Z,19.00
2022-12-19T21:16:37.714Z,18.70
2022-12-19T21:20:39.922Z,20.90
2022-12-19T21:24:41.815Z,16.30
2022-12-19T21:28:44.305Z,16.00
2022-12-19T21:32:46.736Z,19.10
2022-12-19T21:36:48.852Z,16.90
2022-12-19T21:40:50.810Z,19.70
2022-12-19T21:44:52.703Z,15.70
2022-12-19T21:48:56.344Z,18.50
2022-12-19T21:52:58.813Z,18.70
2022-12-19T21:57:03.539Z,19.80
2022-12-19T22:01:10.918Z,19.60
2022-12-19T22:05:13.918Z,19.30
2022-12-19T22:09:18.747Z,18.40
2022-12-19T22:13:21.115Z,19.90
2022-12-19T22:17:23.158Z,19.60
2022-12-19T22:21:26.256Z,20.50
2022-12-19T22:25:28.177Z,19.60
2022-12-19T22:29:35.820Z,18.00
2022-12-19T22:33:37.801Z,17.00
2022-12-19T22:37:39.803Z,19.20
2022-12-19T22:41:43.279Z,17.30
2022-12-19T22:45:45.299Z,20.30
2022-12-19T22:49:52.086Z,18.90
2022-12-19T22:53:54.550Z,20.00
2022-12-19T22:57:56.462Z,18.20
2022-12-19T23:01:58.749Z,17.80
2022-12-19T23:06:01.784Z,17.50
2022-12-19T23:10:04.328Z,16.80
2022-12-19T23:14:08.915Z,18.70
2022-12-19T23:18:10.952Z,17.80
2022-12-19T23:22:12.954Z,18.40
2022-12-19T23:26:26.702Z,15.80
2022-12-19T23:30:28.600Z,15.50
2022-12-19T23:34:30.544Z,20.30
2022-12-19T23:38:33.169Z,17.30
2022-12-19T23:42:35.130Z,16.40
2022-12-19T23:46:37.427Z,17.20
2022-12-19T23:50:39.520Z,16.90
2022-12-19T23:54:41.408Z,15.90
2022-12-19T23:58:45.141Z,14.60
